createdAt,value
2022-10-04T00:01:11.650Z,9.63
2022-10-04T00:03:45.971Z,9.59
2022-10-04T00:06:22.578Z,9.55
2022-10-04T00:08:54.975Z,9.52
2022-10-04T00:11:29.368Z,9.55
2022-10-04T00:14:00.786Z,9.58
2022-10-04T00:16:34.087Z,9.44
2022-10-04T00:19:25.498Z,9.38
2022-10-04T00:22:28.562Z,9.36
2022-10-04T00:25:20.814Z,9.35
2022-10-04T00:28:29.298Z,9.38
2022-10-04T00:31:18.117Z,9.28
2022-10-04T00:33:49.765Z,9.29
2022-10-04T00:36:46.611Z,9.33
2022-10-04T00:39:26.593Z,9.22
2022-10-04T00:42:06.171Z,9.15
2022-10-04T00:44:42.873Z,9.15
2022-10-04T00:47:21.949Z,9.18
2022-10-04T00:49:56.562Z,9.18
2022-10-04T00:52:30.219Z,9.09
2022-10-04T00:55:04.175Z,9.14
2022-10-04T00:57:36.736Z,9.22
2022-10-04T01:00:09.928Z,9.11
2022-10-04T01:02:47.900Z,9.27
2022-10-04T01:05:20.199Z,9.24
2022-10-04T01:07:56.432Z,9.24
2022-10-04T01:10:28.927Z,9.20
2022-10-04T01:13:06.149Z,9.11
2022-10-04T01:15:44.031Z,9.09
2022-10-04T01:18:17.031Z,9.04
2022-10-04T01:20:55.969Z,9.05
2022-10-04T01:23:54.649Z,8.95
2022-10-04T01:26:43.556Z,9.03
2022-10-04T01:29:15.751Z,9.06
2022-10-04T01:31:46.431Z,9.08
2022-10-04T01:34:18.224Z,9.08
2022-10-04T01:36:49.061Z,9.07
2022-10-04T01:39:20.857Z,9.06
2022-10-04T01:41:55.921Z,9.06
2022-10-04T01:44:32.170Z,8.93
2022-10-04T01:47:07.628Z,8.84
2022-10-04T01:49:40.093Z,8.86
2022-10-04T01:52:16.396Z,8.74
2022-10-04T01:54:51.595Z,8.57
2022-10-04T01:57:23.861Z,8.55
2022-10-04T01:59:58.675Z,8.59
2022-10-04T02:02:35.259Z,8.64
2022-10-04T02:05:07.993Z,8.67
2022-10-04T02:07:39.027Z,8.67
2022-10-04T02:10:13.790Z,8.69
2022-10-04T02:12:47.333Z,8.60
2022-10-04T02:15:17.725Z,8.64
2022-10-04T02:17:46.551Z,8.63
2022-10-04T02:20:18.593Z,8.56
2022-10-04T02:22:52.142Z,8.55
2022-10-04T02:25:22.693Z,8.54
2022-10-04T02:27:56.268Z,8.51
2022-10-04T02:30:25.897Z,8.50
2022-10-04T02:33:00.677Z,8.40
2022-10-04T02:35:35.711Z,8.30
2022-10-04T02:38:11.709Z,8.23
2022-10-04T02:40:49.233Z,8.20
2022-10-04T02:43:22.560Z,8.16
2022-10-04T02:45:53.845Z,8.16
2022-10-04T02:48:34.864Z,8.24
2022-10-04T02:51:16.169Z,8.28
2022-10-04T02:53:54.422Z,8.23
2022-10-04T02:56:25.513Z,8.16
2022-10-04T02:58:55.704Z,8.23
2022-10-04T03:01:29.456Z,8.26
2022-10-04T03:03:59.780Z,8.27
2022-10-04T03:06:32.949Z,8.29
2022-10-04T03:09:05.109Z,8.27
2022-10-04T03:11:38.279Z,8.24
2022-10-04T03:14:14.156Z,8.15
2022-10-04T03:16:46.376Z,8.11
2022-10-04T03:19:18.076Z,8.05
2022-10-04T03:21:50.691Z,7.97
2022-10-04T03:24:22.692Z,8.08
2022-10-04T03:26:56.497Z,8.11
2022-10-04T03:29:27.733Z,8.15
2022-10-04T03:31:58.794Z,8.00
2022-10-04T03:34:36.551Z,8.02
2022-10-04T03:37:08.604Z,8.03
2022-10-04T03:39:40.746Z,8.05
2022-10-04T03:42:16.496Z,8.02
2022-10-04T03:44:46.824Z,8.01
2022-10-04T03:47:20.937Z,8.02
2022-10-04T03:49:52.204Z,7.97
2022-10-04T03:52:25.644Z,7.87
2022-10-04T03:54:58.494Z,7.89
2022-10-04T03:57:29.877Z,7.88
2022-10-04T03:59:59.839Z,7.88
2022-10-04T04:02:35.479Z,7.90
2022-10-04T04:05:12.012Z,7.94
2022-10-04T04:07:46.856Z,7.85
2022-10-04T04:10:23.859Z,7.77
2022-10-04T04:12:58.378Z,7.72
2022-10-04T04:15:31.517Z,7.68
2022-10-04T04:18:04.560Z,7.64
2022-10-04T04:20:36.170Z,7.60
2022-10-04T04:23:14.013Z,7.61
2022-10-04T04:25:45.989Z,7.66
2022-10-04T04:28:27.028Z,7.66
2022-10-04T04:31:01.614Z,7.62
2022-10-04T04:33:35.240Z,7.57
2022-10-04T04:36:08.473Z,7.53
2022-10-04T04:38:57.003Z,7.54
2022-10-04T04:41:28.325Z,7.46
2022-10-04T04:43:58.972Z,7.61
2022-10-04T04:46:29.587Z,7.61
2022-10-04T04:49:02.619Z,7.60
2022-10-04T04:51:34.471Z,7.61
2022-10-04T04:54:05.796Z,7.54
2022-10-04T04:56:36.663Z,7.46
2022-10-04T04:59:09.179Z,7.41
2022-10-04T05:01:45.552Z,7.41
2022-10-04T05:04:21.447Z,7.46
2022-10-04T05:07:01.007Z,7.52
2022-10-04T05:09:32.550Z,7.46
2022-10-04T05:12:08.795Z,7.41
2022-10-04T05:14:42.524Z,7.48
2022-10-04T05:17:20.163Z,7.55
2022-10-04T05:19:49.129Z,7.44
2022-10-04T05:22:22.620Z,7.52
2022-10-04T05:24:54.972Z,7.60
2022-10-04T05:27:30.123Z,7.59
2022-10-04T05:30:07.395Z,7.51
2022-10-04T05:32:50.228Z,7.57
2022-10-04T05:35:20.610Z,7.63
2022-10-04T05:38:00.247Z,7.69
2022-10-04T05:40:39.452Z,7.73
2022-10-04T05:43:23.642Z,7.73
2022-10-04T05:46:23.415Z,7.68
2022-10-04T05:48:56.121Z,7.69
2022-10-04T05:51:28.046Z,7.70
2022-10-04T05:53:59.138Z,7.69
2022-10-04T05:56:49.749Z,7.70
2022-10-04T05:59:37.266Z,7.72
2022-10-04T06:02:22.783Z,7.74
2022-10-04T06:05:09.551Z,7.73
2022-10-04T06:07:43.003Z,7.58
2022-10-04T06:10:40.711Z,7.67
2022-10-04T06:13:19.153Z,7.74
2022-10-04T06:16:12.896Z,7.86
2022-10-04T06:19:03.865Z,7.92
2022-10-04T06:21:42.571Z,7.93
2022-10-04T06:24:15.806Z,7.95
2022-10-04T06:26:48.698Z,8.08
2022-10-04T06:29:20.648Z,8.14
2022-10-04T06:32:15.879Z,8.06
2022-10-04T06:35:18.168Z,8.03
2022-10-04T06:38:23.629Z,8.12
2022-10-04T06:41:08.435Z,8.20
2022-10-04T06:43:51.646Z,8.20
2022-10-04T06:46:28.192Z,8.32
2022-10-04T06:49:21.212Z,8.45
2022-10-04T06:52:21.377Z,8.54
2022-10-04T06:55:15.351Z,8.57
2022-10-04T06:58:08.964Z,8.64
2022-10-04T07:00:49.135Z,8.69
2022-10-04T07:03:26.464Z,8.65
2022-10-04T07:06:01.020Z,8.60
2022-10-04T07:08:39.188Z,8.75
2022-10-04T07:11:15.504Z,8.84
2022-10-04T07:13:52.351Z,9.03
2022-10-04T07:16:33.813Z,9.20
2022-10-04T07:19:13.517Z,9.27
2022-10-04T07:21:50.591Z,9.33
2022-10-04T07:24:26.316Z,9.40
2022-10-04T07:26:57.164Z,9.56
2022-10-04T07:29:29.178Z,9.74
2022-10-04T07:32:09.253Z,9.84
2022-10-04T07:34:44.311Z,9.93
2022-10-04T07:37:15.415Z,10.07
2022-10-04T07:39:51.808Z,10.18
2022-10-04T07:42:27.442Z,10.29
2022-10-04T07:45:10.209Z,10.33
2022-10-04T07:47:38.800Z,10.41
2022-10-04T07:50:23.484Z,10.48
2022-10-04T07:53:09.611Z,10.56
2022-10-04T07:55:49.193Z,10.64
2022-10-04T07:58:33.013Z,10.74
2022-10-04T08:01:06.171Z,10.83
2022-10-04T08:03:46.911Z,10.95
2022-10-04T08:06:22.549Z,10.97
2022-10-04T08:09:13.623Z,11.00
2022-10-04T08:11:51.977Z,11.08
2022-10-04T08:14:29.249Z,11.13
2022-10-04T08:17:15.655Z,11.22
2022-10-04T08:19:56.359Z,11.43
2022-10-04T08:22:36.332Z,11.72
2022-10-04T08:25:13.651Z,11.85
2022-10-04T08:28:17.862Z,11.95
2022-10-04T08:31:18.001Z,12.08
2022-10-04T08:34:00.676Z,12.03
2022-10-04T08:36:46.855Z,12.19
2022-10-04T08:39:35.743Z,12.22
2022-10-04T08:42:29.197Z,12.42
2022-10-04T08:45:37.905Z,12.59
2022-10-04T08:48:51.609Z,12.71
2022-10-04T08:52:00.208Z,12.81
2022-10-04T08:54:57.459Z,12.75
2022-10-04T08:57:54.484Z,12.89
2022-10-04T09:00:36.787Z,12.85
2022-10-04T09:03:46.613Z,12.91
2022-10-04T09:06:34.393Z,12.88
2022-10-04T09:09:48.035Z,12.93
2022-10-04T09:12:49.677Z,12.97
2022-10-04T09:15:31.639Z,13.09
2022-10-04T09:18:21.575Z,13.22
2022-10-04T09:21:01.257Z,13.37
2022-10-04T09:24:05.892Z,13.50
2022-10-04T09:26:46.055Z,13.75
2022-10-04T09:29:55.543Z,13.94
2022-10-04T09:33:04.085Z,14.23
2022-10-04T09:36:05.196Z,14.58
2022-10-04T09:39:29.870Z,14.79
2022-10-04T09:42:15.753Z,14.81
2022-10-04T09:45:02.790Z,15.04
2022-10-04T09:47:37.948Z,15.23
2022-10-04T09:50:26.927Z,15.29
2022-10-04T09:53:02.859Z,15.49
2022-10-04T09:55:52.588Z,15.58
2022-10-04T09:58:51.866Z,15.59
2022-10-04T10:01:29.544Z,15.82
2022-10-04T10:04:25.104Z,15.83
2022-10-04T10:07:12.004Z,15.89
2022-10-04T10:10:04.479Z,16.00
2022-10-04T10:13:11.725Z,16.12
2022-10-04T10:16:00.120Z,16.38
2022-10-04T10:18:44.099Z,16.51
2022-10-04T10:21:28.284Z,16.51
2022-10-04T10:24:17.441Z,16.56
2022-10-04T10:27:03.575Z,16.56
2022-10-04T10:29:48.041Z,16.73
2022-10-04T10:32:48.739Z,17.00
2022-10-04T10:35:27.944Z,17.17
2022-10-04T10:38:22.985Z,17.19
2022-10-04T10:41:31.688Z,17.29
2022-10-04T10:44:31.101Z,17.22
2022-10-04T10:47:22.045Z,17.21
2022-10-04T10:50:25.250Z,17.44
2022-10-04T10:53:29.458Z,17.57
2022-10-04T10:56:32.586Z,17.44
2022-10-04T10:59:42.564Z,17.25
2022-10-04T11:02:50.330Z,17.22
2022-10-04T11:05:41.639Z,17.30
2022-10-04T11:08:35.869Z,17.51
2022-10-04T11:11:21.157Z,17.76
2022-10-04T11:14:16.797Z,17.95
2022-10-04T11:17:24.080Z,18.16
2022-10-04T11:20:26.221Z,18.24
2022-10-04T11:23:22.047Z,18.30
2022-10-04T11:26:08.718Z,18.43
2022-10-04T11:28:46.857Z,18.83
2022-10-04T11:31:51.773Z,18.69
2022-10-04T11:34:52.134Z,18.92
2022-10-04T11:37:32.403Z,18.84
2022-10-04T11:40:23.805Z,19.18
2022-10-04T11:43:12.341Z,19.23
2022-10-04T11:46:13.682Z,19.46
2022-10-04T11:48:55.408Z,19.67
2022-10-04T11:52:02.613Z,19.38
2022-10-04T11:55:08.225Z,19.33
2022-10-04T11:57:44.807Z,19.44
2022-10-04T12:00:17.044Z,19.47
2022-10-04T12:03:31.452Z,19.95
2022-10-04T12:06:23.372Z,20.08
2022-10-04T12:09:06.732Z,20.54
2022-10-04T12:12:29.895Z,20.91
2022-10-04T12:15:19.593Z,20.69
2022-10-04T12:18:19.783Z,20.50
2022-10-04T12:21:07.494Z,20.78
2022-10-04T12:24:04.200Z,20.91
2022-10-04T12:26:51.589Z,20.87
2022-10-04T12:30:03.116Z,20.75
2022-10-04T12:32:40.069Z,20.86
2022-10-04T12:35:24.126Z,20.99
2022-10-04T12:38:15.226Z,21.01
2022-10-04T12:40:50.239Z,21.15
2022-10-04T12:43:25.903Z,21.04
2022-10-04T12:46:07.518Z,21.00
2022-10-04T12:48:58.375Z,20.76
2022-10-04T12:51:39.485Z,21.05
2022-10-04T12:54:30.319Z,21.06
2022-10-04T12:57:10.731Z,21.38
2022-10-04T12:59:53.461Z,21.53
2022-10-04T13:02:37.001Z,21.65
2022-10-04T13:05:18.095Z,21.55
2022-10-04T13:08:17.765Z,21.38
2022-10-04T13:11:10.971Z,20.99
2022-10-04T13:14:04.228Z,20.89
2022-10-04T13:19:44.292Z,21.53
2022-10-04T13:22:56.095Z,21.79
2022-10-04T13:26:00.006Z,21.97
2022-10-04T13:28:39.585Z,22.39
2022-10-04T13:31:16.012Z,22.63
2022-10-04T13:33:51.466Z,22.64
2022-10-04T13:36:30.741Z,22.52
2022-10-04T13:39:25.378Z,22.28
2022-10-04T13:42:21.004Z,22.47
2022-10-04T13:45:06.759Z,22.72
2022-10-04T13:47:53.044Z,22.54
2022-10-04T13:50:36.711Z,22.68
2022-10-04T13:53:37.149Z,22.52
2022-10-04T13:56:35.168Z,22.43
2022-10-04T13:59:12.345Z,22.28
2022-10-04T14:02:34.924Z,21.98
2022-10-04T14:05:46.816Z,21.92
2022-10-04T14:08:44.423Z,22.08
2022-10-04T14:11:48.949Z,22.51
2022-10-04T14:15:00.460Z,22.81
2022-10-04T14:18:15.735Z,22.80
2022-10-04T14:21:23.646Z,22.88
2022-10-04T14:24:34.893Z,22.76
2022-10-04T14:27:28.475Z,23.06
2022-10-04T14:30:07.663Z,23.06
2022-10-04T14:33:08.236Z,23.01
2022-10-04T14:35:46.669Z,23.25
2022-10-04T14:38:39.609Z,23.65
2022-10-04T14:41:33.940Z,23.38
2022-10-04T14:44:30.047Z,23.30
2022-10-04T14:47:13.756Z,22.97
2022-10-04T14:50:05.179Z,22.82
2022-10-04T14:52:50.589Z,22.98
2022-10-04T14:55:49.113Z,23.26
2022-10-04T14:58:29.549Z,23.51
2022-10-04T15:01:19.542Z,23.68
2022-10-04T15:04:13.947Z,23.73
2022-10-04T15:06:49.379Z,23.62
2022-10-04T15:09:50.689Z,23.66
2022-10-04T15:13:10.019Z,23.71
2022-10-04T15:15:50.989Z,23.67
2022-10-04T15:18:29.353Z,23.64
2022-10-04T15:21:02.336Z,23.71
2022-10-04T15:23:37.954Z,23.63
2022-10-04T15:26:50.795Z,23.32
2022-10-04T15:29:29.018Z,22.98
2022-10-04T15:32:07.651Z,22.83
2022-10-04T15:34:45.639Z,22.73
2022-10-04T15:37:25.608Z,22.68
2022-10-04T15:40:27.641Z,22.26
2022-10-04T15:43:17.193Z,21.83
2022-10-04T15:46:03.120Z,21.62
2022-10-04T15:48:47.770Z,21.51
2022-10-04T15:51:26.849Z,21.47
2022-10-04T15:54:17.485Z,21.48
2022-10-04T15:56:57.141Z,21.12
2022-10-04T15:59:37.500Z,20.86
2022-10-04T16:02:27.551Z,20.90
2022-10-04T16:05:04.508Z,20.53
2022-10-04T16:08:00.382Z,20.29
2022-10-04T16:10:48.245Z,20.13
2022-10-04T16:13:34.476Z,20.06
2022-10-04T16:16:32.210Z,19.88
2022-10-04T16:19:12.204Z,19.58
2022-10-04T16:21:51.970Z,19.43
2022-10-04T16:24:40.917Z,19.19
2022-10-04T16:27:43.149Z,18.97
2022-10-04T16:30:28.440Z,18.81
2022-10-04T16:33:31.213Z,18.85
2022-10-04T16:36:10.111Z,18.80
2022-10-04T16:39:07.677Z,18.61
2022-10-04T16:41:44.609Z,18.39
2022-10-04T16:44:32.501Z,18.04
2022-10-04T16:47:04.360Z,17.83
2022-10-04T16:49:41.515Z,17.62
2022-10-04T16:52:27.450Z,17.24
2022-10-04T16:55:22.691Z,17.02
2022-10-04T16:58:42.935Z,17.07
2022-10-04T17:02:03.224Z,16.95
2022-10-04T17:04:52.185Z,16.91
2022-10-04T17:07:28.963Z,16.89
2022-10-04T17:10:03.384Z,16.78
2022-10-04T17:12:45.535Z,16.58
2022-10-04T17:15:27.667Z,16.44
2022-10-04T17:18:13.590Z,16.27
2022-10-04T17:20:56.745Z,16.09
2022-10-04T17:23:47.069Z,15.97
2022-10-04T17:26:31.785Z,15.83
2022-10-04T17:29:09.951Z,15.90
2022-10-04T17:31:50.540Z,15.93
2022-10-04T17:34:31.646Z,15.86
2022-10-04T17:37:14.344Z,15.80
2022-10-04T17:39:49.634Z,15.73
2022-10-04T17:42:30.361Z,15.78
2022-10-04T17:45:19.847Z,15.74
2022-10-04T17:48:16.396Z,15.51
2022-10-04T17:51:12.411Z,15.48
2022-10-04T17:54:06.133Z,15.40
2022-10-04T17:56:40.860Z,15.38
2022-10-04T17:59:14.192Z,15.25
2022-10-04T18:01:47.300Z,15.31
2022-10-04T18:04:20.754Z,15.26
2022-10-04T18:06:53.889Z,15.25
2022-10-04T18:09:30.579Z,15.18
2022-10-04T18:12:02.930Z,15.11
2022-10-04T18:14:51.974Z,15.03
2022-10-04T18:17:32.967Z,15.01
2022-10-04T18:20:21.469Z,14.99
2022-10-04T18:22:59.372Z,14.99
2022-10-04T18:25:30.439Z,14.85
2022-10-04T18:28:06.629Z,14.83
2022-10-04T18:30:52.525Z,14.64
2022-10-04T18:33:26.413Z,14.51
2022-10-04T18:36:04.655Z,14.51
2022-10-04T18:38:35.696Z,14.55
2022-10-04T18:41:19.275Z,14.57
2022-10-04T18:43:52.799Z,14.54
2022-10-04T18:46:23.232Z,14.49
2022-10-04T18:48:54.872Z,14.46
2022-10-04T18:51:29.208Z,14.36
2022-10-04T18:54:15.230Z,14.29
2022-10-04T18:57:04.597Z,14.13
2022-10-04T18:59:57.602Z,14.00
2022-10-04T19:02:35.143Z,14.01
2022-10-04T19:05:12.173Z,13.96
2022-10-04T19:07:48.176Z,13.98
2022-10-04T19:10:26.998Z,13.92
2022-10-04T19:13:18.123Z,13.87
2022-10-04T19:16:04.920Z,13.88
2022-10-04T19:18:48.080Z,13.88
2022-10-04T19:21:26.786Z,13.86
2022-10-04T19:24:12.048Z,13.83
2022-10-04T19:26:45.147Z,13.72
2022-10-04T19:29:24.726Z,13.65
2022-10-04T19:31:59.101Z,13.59
2022-10-04T19:34:40.208Z,13.55
2022-10-04T19:37:17.728Z,13.51
2022-10-04T19:39:57.315Z,13.52
2022-10-04T19:42:35.538Z,13.50
2022-10-04T19:45:19.460Z,13.38
2022-10-04T19:47:51.963Z,13.28
2022-10-04T19:50:24.160Z,13.14
2022-10-04T19:52:55.382Z,13.18
2022-10-04T19:55:43.821Z,13.15
2022-10-04T19:58:38.222Z,13.17
2022-10-04T20:01:13.073Z,13.03
2022-10-04T20:03:42.864Z,12.98
2022-10-04T20:06:21.756Z,12.93
2022-10-04T20:09:01.944Z,12.80
2022-10-04T20:11:49.984Z,12.63
2022-10-04T20:14:55.365Z,12.60
2022-10-04T20:17:44.244Z,12.55
2022-10-04T20:20:16.257Z,12.62
2022-10-04T20:22:57.871Z,12.68
2022-10-04T20:26:00.318Z,12.62
2022-10-04T20:28:44.845Z,12.55
2022-10-04T20:31:47.128Z,12.50
2022-10-04T20:34:35.440Z,12.49
2022-10-04T20:37:05.451Z,12.45
2022-10-04T20:40:01.542Z,12.29
2022-10-04T20:42:33.989Z,12.25
2022-10-04T20:45:19.064Z,12.36
2022-10-04T20:47:49.152Z,12.31
2022-10-04T20:50:30.691Z,12.36
2022-10-04T20:53:02.851Z,12.41
2022-10-04T20:55:33.839Z,12.38
2022-10-04T20:58:05.122Z,12.39
2022-10-04T21:00:35.828Z,12.41
2022-10-04T21:03:22.265Z,12.38
2022-10-04T21:06:03.891Z,12.32
2022-10-04T21:08:33.487Z,12.30
2022-10-04T21:11:44.113Z,12.31
2022-10-04T21:14:23.924Z,12.17
2022-10-04T21:16:58.695Z,12.15
2022-10-04T21:19:46.544Z,12.10
2022-10-04T21:22:39.858Z,12.00
2022-10-04T21:25:41.652Z,12.03
2022-10-04T21:28:32.049Z,11.93
2022-10-04T21:31:01.052Z,11.86
2022-10-04T21:33:31.846Z,11.72
2022-10-04T21:36:00.552Z,11.72
2022-10-04T21:38:30.893Z,11.74
2022-10-04T21:40:59.863Z,11.75
2022-10-04T21:43:29.157Z,11.67
2022-10-04T21:45:57.834Z,11.67
2022-10-04T21:48:27.468Z,11.66
2022-10-04T21:50:56.422Z,11.67
2022-10-04T21:53:25.662Z,11.62
2022-10-04T21:55:55.894Z,11.65
2022-10-04T21:58:24.378Z,11.66
2022-10-04T22:00:53.639Z,11.60
2022-10-04T22:03:22.654Z,11.55
2022-10-04T22:05:51.300Z,11.46
2022-10-04T22:08:20.323Z,11.37
2022-10-04T22:10:49.290Z,11.43
2022-10-04T22:13:19.608Z,11.33
2022-10-04T22:15:48.101Z,11.25
2022-10-04T22:18:17.465Z,11.31
2022-10-04T22:20:47.107Z,11.32
2022-10-04T22:23:19.176Z,11.29
2022-10-04T22:25:48.501Z,11.31
2022-10-04T22:28:23.476Z,11.21
2022-10-04T22:30:53.671Z,11.08
2022-10-04T22:33:29.788Z,11.02
2022-10-04T22:36:00.838Z,11.03
2022-10-04T22:38:29.317Z,10.95
2022-10-04T22:40:58.673Z,10.90
2022-10-04T22:43:28.510Z,10.90
2022-10-04T22:45:57.364Z,10.99
2022-10-04T22:48:28.932Z,11.01
2022-10-04T22:50:57.535Z,11.08
2022-10-04T22:53:26.395Z,11.04
2022-10-04T22:55:56.205Z,10.93
2022-10-04T22:58:25.528Z,10.85
2022-10-04T23:00:56.760Z,10.68
2022-10-04T23:03:31.231Z,10.76
2022-10-04T23:06:02.113Z,10.78
2022-10-04T23:08:31.710Z,10.81
2022-10-04T23:11:02.101Z,10.68
2022-10-04T23:13:31.033Z,10.64
2022-10-04T23:16:07.878Z,10.47
2022-10-04T23:18:36.902Z,10.52
2022-10-04T23:21:20.483Z,10.59
2022-10-04T23:23:50.697Z,10.53
2022-10-04T23:26:24.260Z,10.63
2022-10-04T23:28:53.114Z,10.57
2022-10-04T23:31:25.632Z,10.39
2022-10-04T23:33:58.272Z,10.39
2022-10-04T23:36:27.153Z,10.44
2022-10-04T23:39:00.580Z,10.46
2022-10-04T23:41:29.677Z,10.47
2022-10-04T23:43:59.056Z,10.50
2022-10-04T23:46:31.681Z,10.51
2022-10-04T23:49:00.527Z,10.52
2022-10-04T23:51:29.600Z,10.54
2022-10-04T23:53:59.642Z,10.52
2022-10-04T23:56:30.478Z,10.44
2022-10-04T23:59:00.731Z,10.23
